CheckWX is a tool to help pilots better visualize weather data.  It is not intended as a substitute for an official pre-flight weather briefing.

10:29:46 UTC

KASD TAF
Slidell Airport
Slidell, Louisiana, USA
KASD 260520Z 2606/2706 VRB03KT P6SM SCT040 BKN250 FM261800 12006KT P6SM SCT050 BKN200 FM262000 15006KT P6SM FEW060 SCT110 FM270300 00000KT P6SM FEW070 SCT250

Jun-26@
06:00 UTC

Jun-26 @ 06:00 UTC

Jun-26@
18:00 UTC

Jun-26 @ 18:00 UTC

KASD 260520Z 2606/2706 VRB03KT P6SM SCT040 BKN250
Wind
  • Variable at 3 KTS
Cloud Levels
  • Scattered at 4,000' AGL
  • Broken at 25,000' AGL

Jun-26@
18:00 UTC

Jun-26 @ 18:00 UTC

Jun-26@
20:00 UTC

Jun-26 @ 20:00 UTC

FM261800 12006KT P6SM SCT050 BKN200

From

From Standard forecast or significant change

Wind
  • 120° at 6 KTS
Cloud Levels
  • Scattered at 5,000' AGL
  • Broken at 20,000' AGL

Jun-26@
20:00 UTC

Jun-26 @ 20:00 UTC

Jun-27@
03:00 UTC

Jun-27 @ 03:00 UTC

FM262000 15006KT P6SM FEW060 SCT110

From

From Standard forecast or significant change

Wind
  • 150° at 6 KTS
Cloud Levels
  • Few at 6,000' AGL
  • Scattered at 11,000' AGL

Jun-27@
03:00 UTC

Jun-27 @ 03:00 UTC

Jun-27@
06:00 UTC

Jun-27 @ 06:00 UTC

FM270300 00000KT P6SM FEW070 SCT250

From

From Standard forecast or significant change

Cloud Levels
  • Few at 7,000' AGL
  • Scattered at 25,000' AGL